sensor_id;sensor_type;location;lat;lon;timestamp;P1;durP1;ratioP1;P2;durP2;ratioP2
81807;SDS011;71241;13.676;100.700;2023-11-19T00:00:31;18.98;;;8.68;;
81807;SDS011;71241;13.676;100.700;2023-11-19T00:03:02;13.05;;;8.07;;
81807;SDS011;71241;13.676;100.700;2023-11-19T00:05:35;13.07;;;8.02;;
81807;SDS011;71241;13.676;100.700;2023-11-19T00:08:05;13.32;;;7.43;;
81807;SDS011;71241;13.676;100.700;2023-11-19T00:10:38;16.15;;;8.65;;
81807;SDS011;71241;13.676;100.700;2023-11-19T00:13:08;13.60;;;7.60;;
81807;SDS011;71241;13.676;100.700;2023-11-19T00:15:40;14.48;;;8.10;;
81807;SDS011;71241;13.676;100.700;2023-11-19T00:18:10;16.45;;;11.57;;
81807;SDS011;71241;13.676;100.700;2023-11-19T00:20:43;14.18;;;7.30;;
81807;SDS011;71241;13.676;100.700;2023-11-19T00:23:14;9.05;;;7.03;;
81807;SDS011;71241;13.676;100.700;2023-11-19T00:25:44;12.52;;;7.57;;
81807;SDS011;71241;13.676;100.700;2023-11-19T00:28:16;12.25;;;6.75;;
81807;SDS011;71241;13.676;100.700;2023-11-19T00:30:47;12.05;;;6.75;;
81807;SDS011;71241;13.676;100.700;2023-11-19T00:33:18;13.38;;;7.78;;
81807;SDS011;71241;13.676;100.700;2023-11-19T00:35:51;12.80;;;7.50;;
81807;SDS011;71241;13.676;100.700;2023-11-19T00:38:21;15.40;;;8.60;;
81807;SDS011;71241;13.676;100.700;2023-11-19T00:40:52;13.75;;;7.70;;
81807;SDS011;71241;13.676;100.700;2023-11-19T00:43:22;10.48;;;7.00;;
81807;SDS011;71241;13.676;100.700;2023-11-19T00:45:53;14.13;;;7.43;;
81807;SDS011;71241;13.676;100.700;2023-11-19T00:48:24;11.30;;;6.85;;
81807;SDS011;71241;13.676;100.700;2023-11-19T00:50:57;16.38;;;9.30;;
81807;SDS011;71241;13.676;100.700;2023-11-19T00:55:58;12.30;;;9.13;;
81807;SDS011;71241;13.676;100.700;2023-11-19T00:58:28;16.98;;;9.32;;
81807;SDS011;71241;13.676;100.700;2023-11-19T01:00:59;12.00;;;7.90;;
81807;SDS011;71241;13.676;100.700;2023-11-19T01:03:30;8.70;;;7.80;;
81807;SDS011;71241;13.676;100.700;2023-11-19T01:06:04;13.57;;;8.52;;
81807;SDS011;71241;13.676;100.700;2023-11-19T01:08:36;13.60;;;8.88;;
81807;SDS011;71241;13.676;100.700;2023-11-19T01:11:06;13.13;;;6.80;;
81807;SDS011;71241;13.676;100.700;2023-11-19T01:13:37;12.43;;;6.30;;
81807;SDS011;71241;13.676;100.700;2023-11-19T01:16:08;11.43;;;7.03;;
81807;SDS011;71241;13.676;100.700;2023-11-19T01:18:39;10.75;;;6.40;;
81807;SDS011;71241;13.676;100.700;2023-11-19T01:21:11;10.68;;;6.35;;
81807;SDS011;71241;13.676;100.700;2023-11-19T01:23:43;10.55;;;7.10;;
81807;SDS011;71241;13.676;100.700;2023-11-19T01:26:14;13.30;;;7.00;;
81807;SDS011;71241;13.676;100.700;2023-11-19T01:28:45;15.00;;;7.80;;
81807;SDS011;71241;13.676;100.700;2023-11-19T01:31:19;13.02;;;6.82;;
81807;SDS011;71241;13.676;100.700;2023-11-19T01:33:49;11.55;;;6.95;;
81807;SDS011;71241;13.676;100.700;2023-11-19T01:36:22;12.77;;;6.93;;
81807;SDS011;71241;13.676;100.700;2023-11-19T01:38:53;12.25;;;7.30;;
81807;SDS011;71241;13.676;100.700;2023-11-19T01:41:23;7.93;;;6.63;;
81807;SDS011;71241;13.676;100.700;2023-11-19T01:43:54;11.25;;;7.00;;
81807;SDS011;71241;13.676;100.700;2023-11-19T01:46:24;9.85;;;6.38;;
81807;SDS011;71241;13.676;100.700;2023-11-19T01:48:55;15.25;;;7.40;;
81807;SDS011;71241;13.676;100.700;2023-11-19T01:51:28;13.95;;;6.95;;
81807;SDS011;71241;13.676;100.700;2023-11-19T01:53:59;10.00;;;7.05;;
81807;SDS011;71241;13.676;100.700;2023-11-19T01:56:29;9.70;;;7.78;;
81807;SDS011;71241;13.676;100.700;2023-11-19T01:59:00;13.20;;;7.15;;
81807;SDS011;71241;13.676;100.700;2023-11-19T02:01:31;11.05;;;7.05;;
81807;SDS011;71241;13.676;100.700;2023-11-19T02:04:04;9.60;;;7.70;;
81807;SDS011;71241;13.676;100.700;2023-11-19T02:06:40;9.20;;;7.32;;
81807;SDS011;71241;13.676;100.700;2023-11-19T02:09:12;7.35;;;6.50;;
81807;SDS011;71241;13.676;100.700;2023-11-19T02:11:43;7.75;;;6.45;;
81807;SDS011;71241;13.676;100.700;2023-11-19T02:14:14;11.02;;;7.15;;
81807;SDS011;71241;13.676;100.700;2023-11-19T02:16:45;10.82;;;7.25;;
81807;SDS011;71241;13.676;100.700;2023-11-19T02:19:15;11.88;;;7.63;;
81807;SDS011;71241;13.676;100.700;2023-11-19T02:21:51;9.73;;;8.23;;
81807;SDS011;71241;13.676;100.700;2023-11-19T02:24:22;9.10;;;7.88;;
81807;SDS011;71241;13.676;100.700;2023-11-19T02:26:54;11.13;;;10.02;;
81807;SDS011;71241;13.676;100.700;2023-11-19T02:29:30;11.30;;;8.52;;
81807;SDS011;71241;13.676;100.700;2023-11-19T02:32:01;8.90;;;7.45;;
81807;SDS011;71241;13.676;100.700;2023-11-19T02:34:32;11.35;;;7.18;;
81807;SDS011;71241;13.676;100.700;2023-11-19T02:37:03;12.85;;;9.10;;
81807;SDS011;71241;13.676;100.700;2023-11-19T02:39:34;10.93;;;8.60;;
81807;SDS011;71241;13.676;100.700;2023-11-19T02:42:10;15.77;;;10.50;;
81807;SDS011;71241;13.676;100.700;2023-11-19T02:44:45;9.25;;;6.57;;
81807;SDS011;71241;13.676;100.700;2023-11-19T02:47:17;12.25;;;7.05;;
81807;SDS011;71241;13.676;100.700;2023-11-19T02:49:53;8.70;;;6.45;;
81807;SDS011;71241;13.676;100.700;2023-11-19T02:52:23;13.20;;;6.88;;
81807;SDS011;71241;13.676;100.700;2023-11-19T02:54:54;9.38;;;6.80;;
81807;SDS011;71241;13.676;100.700;2023-11-19T02:57:25;9.82;;;7.15;;
81807;SDS011;71241;13.676;100.700;2023-11-19T02:59:57;11.07;;;7.35;;
81807;SDS011;71241;13.676;100.700;2023-11-19T03:02:28;10.40;;;9.32;;
81807;SDS011;71241;13.676;100.700;2023-11-19T03:05:03;13.48;;;12.30;;
81807;SDS011;71241;13.676;100.700;2023-11-19T03:07:34;13.20;;;6.72;;
81807;SDS011;71241;13.676;100.700;2023-11-19T03:10:06;9.05;;;7.78;;
81807;SDS011;71241;13.676;100.700;2023-11-19T03:12:41;10.07;;;6.70;;
81807;SDS011;71241;13.676;100.700;2023-11-19T03:15:15;13.02;;;6.90;;
81807;SDS011;71241;13.676;100.700;2023-11-19T03:17:46;9.65;;;7.03;;
81807;SDS011;71241;13.676;100.700;2023-11-19T03:20:17;10.10;;;6.57;;
81807;SDS011;71241;13.676;100.700;2023-11-19T03:22:48;9.98;;;6.13;;
81807;SDS011;71241;13.676;100.700;2023-11-19T03:25:20;10.18;;;6.25;;
81807;SDS011;71241;13.676;100.700;2023-11-19T03:27:51;9.88;;;6.30;;
81807;SDS011;71241;13.676;100.700;2023-11-19T03:30:24;12.18;;;6.50;;
81807;SDS011;71241;13.676;100.700;2023-11-19T03:32:57;12.98;;;6.50;;
81807;SDS011;71241;13.676;100.700;2023-11-19T03:35:30;11.20;;;9.82;;
81807;SDS011;71241;13.676;100.700;2023-11-19T03:38:02;10.57;;;6.63;;
81807;SDS011;71241;13.676;100.700;2023-11-19T03:40:32;9.98;;;6.05;;
81807;SDS011;71241;13.676;100.700;2023-11-19T03:43:03;9.18;;;6.22;;
81807;SDS011;71241;13.676;100.700;2023-11-19T03:45:36;10.38;;;6.22;;
81807;SDS011;71241;13.676;100.700;2023-11-19T03:48:07;8.65;;;5.60;;
81807;SDS011;71241;13.676;100.700;2023-11-19T03:50:37;8.55;;;5.70;;
81807;SDS011;71241;13.676;100.700;2023-11-19T03:53:08;8.70;;;6.30;;
81807;SDS011;71241;13.676;100.700;2023-11-19T03:55:38;10.27;;;6.25;;
81807;SDS011;71241;13.676;100.700;2023-11-19T03:58:09;13.50;;;5.80;;
81807;SDS011;71241;13.676;100.700;2023-11-19T04:00:43;10.02;;;6.40;;
81807;SDS011;71241;13.676;100.700;2023-11-19T04:05:43;12.13;;;6.30;;
81807;SDS011;71241;13.676;100.700;2023-11-19T04:08:14;9.77;;;5.53;;
81807;SDS011;71241;13.676;100.700;2023-11-19T04:10:46;11.80;;;6.50;;
81807;SDS011;71241;13.676;100.700;2023-11-19T04:13:17;10.57;;;6.40;;
81807;SDS011;71241;13.676;100.700;2023-11-19T04:15:50;11.77;;;6.75;;
81807;SDS011;71241;13.676;100.700;2023-11-19T04:18:20;9.45;;;6.32;;
81807;SDS011;71241;13.676;100.700;2023-11-19T04:20:51;10.45;;;6.78;;
81807;SDS011;71241;13.676;100.700;2023-11-19T04:23:22;12.15;;;7.63;;
81807;SDS011;71241;13.676;100.700;2023-11-19T04:26:02;11.02;;;6.65;;
81807;SDS011;71241;13.676;100.700;2023-11-19T04:28:36;10.77;;;6.35;;
81807;SDS011;71241;13.676;100.700;2023-11-19T04:31:08;11.98;;;5.57;;
81807;SDS011;71241;13.676;100.700;2023-11-19T04:33:39;10.27;;;5.97;;
81807;SDS011;71241;13.676;100.700;2023-11-19T04:36:10;10.60;;;6.53;;
81807;SDS011;71241;13.676;100.700;2023-11-19T04:38:40;9.85;;;7.88;;
81807;SDS011;71241;13.676;100.700;2023-11-19T04:41:11;10.27;;;6.30;;
81807;SDS011;71241;13.676;100.700;2023-11-19T04:43:43;14.52;;;6.50;;
81807;SDS011;71241;13.676;100.700;2023-11-19T04:46:15;11.45;;;6.70;;
81807;SDS011;71241;13.676;100.700;2023-11-19T04:51:16;16.55;;;8.02;;
81807;SDS011;71241;13.676;100.700;2023-11-19T04:53:46;11.23;;;6.45;;
81807;SDS011;71241;13.676;100.700;2023-11-19T04:56:17;10.82;;;6.50;;
81807;SDS011;71241;13.676;100.700;2023-11-19T04:58:48;13.57;;;6.80;;
81807;SDS011;71241;13.676;100.700;2023-11-19T05:01:21;12.82;;;7.30;;
81807;SDS011;71241;13.676;100.700;2023-11-19T05:03:51;7.32;;;5.68;;
81807;SDS011;71241;13.676;100.700;2023-11-19T05:06:22;13.20;;;5.97;;
81807;SDS011;71241;13.676;100.700;2023-11-19T05:08:53;11.48;;;6.30;;
81807;SDS011;71241;13.676;100.700;2023-11-19T05:11:24;12.20;;;5.00;;
81807;SDS011;71241;13.676;100.700;2023-11-19T05:13:58;11.10;;;5.65;;
81807;SDS011;71241;13.676;100.700;2023-11-19T05:16:30;12.18;;;6.35;;
81807;SDS011;71241;13.676;100.700;2023-11-19T05:21:31;13.05;;;6.57;;
81807;SDS011;71241;13.676;100.700;2023-11-19T05:24:02;10.40;;;5.88;;
81807;SDS011;71241;13.676;100.700;2023-11-19T05:26:34;10.88;;;6.25;;
81807;SDS011;71241;13.676;100.700;2023-11-19T05:29:04;11.05;;;6.50;;
81807;SDS011;71241;13.676;100.700;2023-11-19T05:31:37;11.27;;;5.97;;
81807;SDS011;71241;13.676;100.700;2023-11-19T05:34:11;11.18;;;6.85;;
81807;SDS011;71241;13.676;100.700;2023-11-19T05:36:45;14.02;;;6.40;;
81807;SDS011;71241;13.676;100.700;2023-11-19T05:39:16;11.90;;;7.13;;
81807;SDS011;71241;13.676;100.700;2023-11-19T05:41:47;8.82;;;6.43;;
81807;SDS011;71241;13.676;100.700;2023-11-19T05:44:18;14.05;;;6.82;;
81807;SDS011;71241;13.676;100.700;2023-11-19T05:46:53;10.15;;;6.45;;
81807;SDS011;71241;13.676;100.700;2023-11-19T05:49:24;15.52;;;7.22;;
81807;SDS011;71241;13.676;100.700;2023-11-19T05:51:54;10.75;;;7.05;;
81807;SDS011;71241;13.676;100.700;2023-11-19T05:54:25;13.02;;;7.47;;
81807;SDS011;71241;13.676;100.700;2023-11-19T05:56:58;15.20;;;6.57;;
81807;SDS011;71241;13.676;100.700;2023-11-19T05:59:29;12.20;;;7.50;;
81807;SDS011;71241;13.676;100.700;2023-11-19T06:02:03;11.45;;;10.10;;
81807;SDS011;71241;13.676;100.700;2023-11-19T06:04:34;13.35;;;11.57;;
81807;SDS011;71241;13.676;100.700;2023-11-19T06:07:05;13.15;;;9.95;;
81807;SDS011;71241;13.676;100.700;2023-11-19T06:09:35;12.20;;;9.77;;
81807;SDS011;71241;13.676;100.700;2023-11-19T06:12:07;14.98;;;13.35;;
81807;SDS011;71241;13.676;100.700;2023-11-19T06:14:38;13.52;;;10.07;;
81807;SDS011;71241;13.676;100.700;2023-11-19T06:17:14;11.10;;;9.75;;
81807;SDS011;71241;13.676;100.700;2023-11-19T06:19:45;12.75;;;9.80;;
81807;SDS011;71241;13.676;100.700;2023-11-19T06:22:15;14.27;;;8.07;;
81807;SDS011;71241;13.676;100.700;2023-11-19T06:24:46;10.38;;;6.97;;
81807;SDS011;71241;13.676;100.700;2023-11-19T06:27:16;12.93;;;7.30;;
81807;SDS011;71241;13.676;100.700;2023-11-19T06:29:47;13.77;;;9.70;;
81807;SDS011;71241;13.676;100.700;2023-11-19T06:32:20;8.73;;;7.85;;
81807;SDS011;71241;13.676;100.700;2023-11-19T06:34:51;9.85;;;7.22;;
81807;SDS011;71241;13.676;100.700;2023-11-19T06:37:22;11.27;;;9.35;;
81807;SDS011;71241;13.676;100.700;2023-11-19T06:39:52;11.07;;;8.95;;
81807;SDS011;71241;13.676;100.700;2023-11-19T06:42:23;10.80;;;8.25;;
81807;SDS011;71241;13.676;100.700;2023-11-19T06:44:54;9.23;;;6.30;;
81807;SDS011;71241;13.676;100.700;2023-11-19T06:47:30;8.82;;;6.18;;
81807;SDS011;71241;13.676;100.700;2023-11-19T06:52:30;8.23;;;5.78;;
81807;SDS011;71241;13.676;100.700;2023-11-19T06:55:01;11.85;;;7.20;;
81807;SDS011;71241;13.676;100.700;2023-11-19T06:57:34;12.65;;;7.28;;
81807;SDS011;71241;13.676;100.700;2023-11-19T07:00:06;10.57;;;5.90;;
81807;SDS011;71241;13.676;100.700;2023-11-19T07:02:39;7.90;;;6.40;;
81807;SDS011;71241;13.676;100.700;2023-11-19T07:05:10;13.68;;;6.45;;
81807;SDS011;71241;13.676;100.700;2023-11-19T07:07:42;10.32;;;6.35;;
81807;SDS011;71241;13.676;100.700;2023-11-19T07:10:12;12.30;;;7.00;;
81807;SDS011;71241;13.676;100.700;2023-11-19T07:12:45;9.13;;;6.80;;
81807;SDS011;71241;13.676;100.700;2023-11-19T07:15:16;9.38;;;6.10;;
81807;SDS011;71241;13.676;100.700;2023-11-19T07:17:48;11.77;;;6.78;;
81807;SDS011;71241;13.676;100.700;2023-11-19T07:20:21;9.82;;;6.90;;
81807;SDS011;71241;13.676;100.700;2023-11-19T07:22:52;14.55;;;13.02;;
81807;SDS011;71241;13.676;100.700;2023-11-19T07:27:55;11.13;;;7.13;;
81807;SDS011;71241;13.676;100.700;2023-11-19T07:30:26;9.20;;;6.57;;
81807;SDS011;71241;13.676;100.700;2023-11-19T07:32:59;13.45;;;9.68;;
81807;SDS011;71241;13.676;100.700;2023-11-19T07:35:30;12.88;;;7.20;;
81807;SDS011;71241;13.676;100.700;2023-11-19T07:38:01;9.63;;;6.60;;
81807;SDS011;71241;13.676;100.700;2023-11-19T07:40:32;11.27;;;6.93;;
81807;SDS011;71241;13.676;100.700;2023-11-19T07:43:02;11.45;;;7.20;;
81807;SDS011;71241;13.676;100.700;2023-11-19T07:45:33;10.75;;;7.07;;
81807;SDS011;71241;13.676;100.700;2023-11-19T07:48:05;9.23;;;6.72;;
81807;SDS011;71241;13.676;100.700;2023-11-19T07:50:36;12.18;;;8.40;;
81807;SDS011;71241;13.676;100.700;2023-11-19T07:53:07;12.70;;;7.15;;
81807;SDS011;71241;13.676;100.700;2023-11-19T07:55:38;7.32;;;5.88;;
81807;SDS011;71241;13.676;100.700;2023-11-19T07:58:09;11.85;;;7.68;;
81807;SDS011;71241;13.676;100.700;2023-11-19T08:00:40;12.35;;;8.20;;
81807;SDS011;71241;13.676;100.700;2023-11-19T08:03:12;11.52;;;7.80;;
81807;SDS011;71241;13.676;100.700;2023-11-19T08:05:43;12.52;;;8.05;;
81807;SDS011;71241;13.676;100.700;2023-11-19T08:08:15;10.75;;;8.15;;
81807;SDS011;71241;13.676;100.700;2023-11-19T08:10:46;13.30;;;7.70;;
81807;SDS011;71241;13.676;100.700;2023-11-19T08:13:17;12.18;;;8.73;;
81807;SDS011;71241;13.676;100.700;2023-11-19T08:15:49;16.58;;;8.15;;
81807;SDS011;71241;13.676;100.700;2023-11-19T08:18:21;14.45;;;8.38;;
81807;SDS011;71241;13.676;100.700;2023-11-19T08:23:22;13.40;;;6.93;;
81807;SDS011;71241;13.676;100.700;2023-11-19T08:25:56;14.07;;;8.63;;
81807;SDS011;71241;13.676;100.700;2023-11-19T08:28:27;11.48;;;8.57;;
81807;SDS011;71241;13.676;100.700;2023-11-19T08:30:57;12.13;;;9.05;;
81807;SDS011;71241;13.676;100.700;2023-11-19T08:33:30;12.85;;;11.55;;
81807;SDS011;71241;13.676;100.700;2023-11-19T08:36:01;12.40;;;8.70;;
81807;SDS011;71241;13.676;100.700;2023-11-19T08:38:33;13.73;;;9.07;;
81807;SDS011;71241;13.676;100.700;2023-11-19T08:41:03;10.18;;;8.23;;
81807;SDS011;71241;13.676;100.700;2023-11-19T08:43:35;12.15;;;8.55;;
81807;SDS011;71241;13.676;100.700;2023-11-19T08:46:09;13.35;;;6.80;;
81807;SDS011;71241;13.676;100.700;2023-11-19T08:48:42;10.27;;;7.80;;
81807;SDS011;71241;13.676;100.700;2023-11-19T08:51:12;12.32;;;7.70;;
81807;SDS011;71241;13.676;100.700;2023-11-19T08:53:45;9.88;;;7.07;;
81807;SDS011;71241;13.676;100.700;2023-11-19T08:56:16;11.13;;;8.25;;
81807;SDS011;71241;13.676;100.700;2023-11-19T08:58:46;13.95;;;8.75;;
81807;SDS011;71241;13.676;100.700;2023-11-19T09:01:17;18.10;;;8.38;;
81807;SDS011;71241;13.676;100.700;2023-11-19T09:03:51;13.50;;;7.90;;
81807;SDS011;71241;13.676;100.700;2023-11-19T09:08:52;13.13;;;7.93;;
81807;SDS011;71241;13.676;100.700;2023-11-19T09:11:25;11.85;;;7.40;;
81807;SDS011;71241;13.676;100.700;2023-11-19T09:13:57;11.50;;;7.43;;
81807;SDS011;71241;13.676;100.700;2023-11-19T09:16:27;10.75;;;7.68;;
81807;SDS011;71241;13.676;100.700;2023-11-19T09:19:00;13.93;;;8.60;;
81807;SDS011;71241;13.676;100.700;2023-11-19T09:21:33;13.13;;;7.32;;
81807;SDS011;71241;13.676;100.700;2023-11-19T09:24:07;13.85;;;8.00;;
81807;SDS011;71241;13.676;100.700;2023-11-19T09:26:41;9.13;;;6.90;;
81807;SDS011;71241;13.676;100.700;2023-11-19T09:29:11;13.43;;;7.85;;
81807;SDS011;71241;13.676;100.700;2023-11-19T09:31:43;14.13;;;7.85;;
81807;SDS011;71241;13.676;100.700;2023-11-19T09:34:16;11.68;;;8.15;;
81807;SDS011;71241;13.676;100.700;2023-11-19T09:36:46;14.05;;;8.43;;
81807;SDS011;71241;13.676;100.700;2023-11-19T09:39:17;13.27;;;8.77;;
81807;SDS011;71241;13.676;100.700;2023-11-19T09:44:19;14.43;;;8.95;;
81807;SDS011;71241;13.676;100.700;2023-11-19T09:46:50;13.25;;;7.88;;
81807;SDS011;71241;13.676;100.700;2023-11-19T09:49:22;12.55;;;7.88;;
81807;SDS011;71241;13.676;100.700;2023-11-19T09:54:29;14.57;;;8.13;;
81807;SDS011;71241;13.676;100.700;2023-11-19T09:57:00;14.68;;;8.30;;
81807;SDS011;71241;13.676;100.700;2023-11-19T09:59:33;13.20;;;7.35;;
81807;SDS011;71241;13.676;100.700;2023-11-19T10:02:03;12.30;;;7.20;;
81807;SDS011;71241;13.676;100.700;2023-11-19T10:04:38;13.57;;;8.25;;
81807;SDS011;71241;13.676;100.700;2023-11-19T10:07:09;12.23;;;7.97;;
81807;SDS011;71241;13.676;100.700;2023-11-19T10:09:40;10.35;;;7.78;;
81807;SDS011;71241;13.676;100.700;2023-11-19T10:12:11;12.65;;;6.93;;
81807;SDS011;71241;13.676;100.700;2023-11-19T10:14:42;16.83;;;8.35;;
81807;SDS011;71241;13.676;100.700;2023-11-19T10:17:13;13.55;;;8.00;;
81807;SDS011;71241;13.676;100.700;2023-11-19T10:19:46;11.82;;;6.90;;
81807;SDS011;71241;13.676;100.700;2023-11-19T10:22:16;13.73;;;7.82;;
81807;SDS011;71241;13.676;100.700;2023-11-19T10:24:47;16.67;;;8.38;;
81807;SDS011;71241;13.676;100.700;2023-11-19T10:27:24;10.70;;;6.50;;
81807;SDS011;71241;13.676;100.700;2023-11-19T10:29:55;12.73;;;7.78;;
81807;SDS011;71241;13.676;100.700;2023-11-19T10:32:30;19.40;;;7.32;;
81807;SDS011;71241;13.676;100.700;2023-11-19T10:35:08;11.57;;;7.18;;
81807;SDS011;71241;13.676;100.700;2023-11-19T10:37:41;13.40;;;8.05;;
81807;SDS011;71241;13.676;100.700;2023-11-19T10:40:12;13.25;;;7.78;;
81807;SDS011;71241;13.676;100.700;2023-11-19T10:42:42;13.75;;;8.20;;
81807;SDS011;71241;13.676;100.700;2023-11-19T10:45:21;12.07;;;7.40;;
81807;SDS011;71241;13.676;100.700;2023-11-19T10:47:53;15.60;;;7.45;;
81807;SDS011;71241;13.676;100.700;2023-11-19T10:50:26;15.32;;;7.80;;
81807;SDS011;71241;13.676;100.700;2023-11-19T10:52:58;17.10;;;8.93;;
81807;SDS011;71241;13.676;100.700;2023-11-19T10:55:30;13.10;;;6.93;;
81807;SDS011;71241;13.676;100.700;2023-11-19T10:58:01;15.27;;;8.70;;
81807;SDS011;71241;13.676;100.700;2023-11-19T11:00:37;12.80;;;8.52;;
81807;SDS011;71241;13.676;100.700;2023-11-19T11:03:10;17.95;;;8.90;;
81807;SDS011;71241;13.676;100.700;2023-11-19T11:05:44;15.63;;;8.75;;
81807;SDS011;71241;13.676;100.700;2023-11-19T11:08:16;13.13;;;10.80;;
81807;SDS011;71241;13.676;100.700;2023-11-19T11:10:50;14.32;;;8.25;;
81807;SDS011;71241;13.676;100.700;2023-11-19T11:13:25;11.25;;;7.05;;
81807;SDS011;71241;13.676;100.700;2023-11-19T11:16:01;10.60;;;7.68;;
81807;SDS011;71241;13.676;100.700;2023-11-19T11:18:33;14.50;;;8.60;;
81807;SDS011;71241;13.676;100.700;2023-11-19T11:21:07;12.05;;;7.53;;
81807;SDS011;71241;13.676;100.700;2023-11-19T11:23:51;12.18;;;10.95;;
81807;SDS011;71241;13.676;100.700;2023-11-19T11:26:48;12.90;;;7.85;;
81807;SDS011;71241;13.676;100.700;2023-11-19T11:29:31;14.00;;;8.27;;
81807;SDS011;71241;13.676;100.700;2023-11-19T11:32:12;11.18;;;7.60;;
81807;SDS011;71241;13.676;100.700;2023-11-19T11:35:07;15.85;;;8.38;;
81807;SDS011;71241;13.676;100.700;2023-11-19T11:37:45;15.98;;;8.32;;
81807;SDS011;71241;13.676;100.700;2023-11-19T11:40:17;13.60;;;7.90;;
81807;SDS011;71241;13.676;100.700;2023-11-19T11:42:48;11.43;;;7.45;;
81807;SDS011;71241;13.676;100.700;2023-11-19T11:45:22;13.32;;;8.23;;
81807;SDS011;71241;13.676;100.700;2023-11-19T11:48:10;11.82;;;8.73;;
81807;SDS011;71241;13.676;100.700;2023-11-19T11:50:52;14.48;;;8.55;;
81807;SDS011;71241;13.676;100.700;2023-11-19T11:53:26;13.52;;;8.85;;
81807;SDS011;71241;13.676;100.700;2023-11-19T11:55:57;15.30;;;8.90;;
81807;SDS011;71241;13.676;100.700;2023-11-19T11:58:32;14.95;;;8.65;;
81807;SDS011;71241;13.676;100.700;2023-11-19T12:03:49;18.38;;;9.38;;
81807;SDS011;71241;13.676;100.700;2023-11-19T12:06:21;15.82;;;9.15;;
81807;SDS011;71241;13.676;100.700;2023-11-19T12:08:53;17.10;;;10.38;;
81807;SDS011;71241;13.676;100.700;2023-11-19T12:11:29;17.05;;;9.85;;
81807;SDS011;71241;13.676;100.700;2023-11-19T12:14:01;19.98;;;10.88;;
81807;SDS011;71241;13.676;100.700;2023-11-19T12:16:34;18.42;;;11.18;;
81807;SDS011;71241;13.676;100.700;2023-11-19T12:19:07;19.70;;;11.82;;
81807;SDS011;71241;13.676;100.700;2023-11-19T12:21:38;20.17;;;12.02;;
81807;SDS011;71241;13.676;100.700;2023-11-19T12:24:10;17.60;;;10.88;;
81807;SDS011;71241;13.676;100.700;2023-11-19T12:26:41;22.10;;;11.02;;
81807;SDS011;71241;13.676;100.700;2023-11-19T12:29:13;16.40;;;11.63;;
81807;SDS011;71241;13.676;100.700;2023-11-19T12:31:44;20.60;;;11.52;;
81807;SDS011;71241;13.676;100.700;2023-11-19T12:34:40;22.17;;;12.80;;
81807;SDS011;71241;13.676;100.700;2023-11-19T12:37:11;22.20;;;12.60;;
81807;SDS011;71241;13.676;100.700;2023-11-19T12:39:43;20.80;;;14.10;;
81807;SDS011;71241;13.676;100.700;2023-11-19T12:42:14;22.70;;;17.38;;
81807;SDS011;71241;13.676;100.700;2023-11-19T12:44:54;23.65;;;11.63;;
81807;SDS011;71241;13.676;100.700;2023-11-19T12:47:33;21.30;;;15.10;;
81807;SDS011;71241;13.676;100.700;2023-11-19T12:50:04;20.63;;;12.73;;
81807;SDS011;71241;13.676;100.700;2023-11-19T12:52:35;20.27;;;13.82;;
81807;SDS011;71241;13.676;100.700;2023-11-19T12:57:58;20.00;;;15.88;;
81807;SDS011;71241;13.676;100.700;2023-11-19T13:00:31;20.83;;;14.18;;
81807;SDS011;71241;13.676;100.700;2023-11-19T13:03:02;20.90;;;13.77;;
81807;SDS011;71241;13.676;100.700;2023-11-19T13:05:33;20.70;;;11.80;;
81807;SDS011;71241;13.676;100.700;2023-11-19T13:08:05;20.83;;;12.65;;
81807;SDS011;71241;13.676;100.700;2023-11-19T13:10:51;24.25;;;11.60;;
81807;SDS011;71241;13.676;100.700;2023-11-19T13:13:25;22.92;;;11.30;;
81807;SDS011;71241;13.676;100.700;2023-11-19T13:16:01;22.25;;;13.45;;
81807;SDS011;71241;13.676;100.700;2023-11-19T13:18:34;21.70;;;13.15;;
81807;SDS011;71241;13.676;100.700;2023-11-19T13:21:08;20.85;;;12.02;;
81807;SDS011;71241;13.676;100.700;2023-11-19T13:23:39;21.23;;;12.07;;
81807;SDS011;71241;13.676;100.700;2023-11-19T13:26:11;20.80;;;12.30;;
81807;SDS011;71241;13.676;100.700;2023-11-19T13:28:42;19.95;;;15.13;;
81807;SDS011;71241;13.676;100.700;2023-11-19T13:31:13;21.35;;;13.88;;
81807;SDS011;71241;13.676;100.700;2023-11-19T13:33:44;21.33;;;15.48;;
81807;SDS011;71241;13.676;100.700;2023-11-19T13:36:15;21.67;;;15.40;;
81807;SDS011;71241;13.676;100.700;2023-11-19T13:38:48;22.80;;;13.73;;
81807;SDS011;71241;13.676;100.700;2023-11-19T13:41:21;18.20;;;11.35;;
81807;SDS011;71241;13.676;100.700;2023-11-19T13:43:53;22.92;;;14.45;;
81807;SDS011;71241;13.676;100.700;2023-11-19T13:46:24;20.58;;;14.07;;
81807;SDS011;71241;13.676;100.700;2023-11-19T13:48:55;21.90;;;12.93;;
81807;SDS011;71241;13.676;100.700;2023-11-19T13:51:25;19.83;;;11.60;;
81807;SDS011;71241;13.676;100.700;2023-11-19T13:53:56;27.50;;;14.57;;
81807;SDS011;71241;13.676;100.700;2023-11-19T13:56:29;20.17;;;13.68;;
81807;SDS011;71241;13.676;100.700;2023-11-19T13:59:00;20.52;;;13.65;;
81807;SDS011;71241;13.676;100.700;2023-11-19T14:01:31;33.03;;;14.65;;
81807;SDS011;71241;13.676;100.700;2023-11-19T14:04:01;24.92;;;14.30;;
81807;SDS011;71241;13.676;100.700;2023-11-19T14:06:32;21.25;;;13.88;;
81807;SDS011;71241;13.676;100.700;2023-11-19T14:09:06;22.92;;;13.93;;
81807;SDS011;71241;13.676;100.700;2023-11-19T14:11:38;25.27;;;14.02;;
81807;SDS011;71241;13.676;100.700;2023-11-19T14:16:39;20.58;;;12.88;;
81807;SDS011;71241;13.676;100.700;2023-11-19T14:19:10;26.27;;;13.45;;
81807;SDS011;71241;13.676;100.700;2023-11-19T14:21:41;22.55;;;12.02;;
81807;SDS011;71241;13.676;100.700;2023-11-19T14:24:12;18.63;;;11.38;;
81807;SDS011;71241;13.676;100.700;2023-11-19T14:26:47;22.85;;;11.43;;
81807;SDS011;71241;13.676;100.700;2023-11-19T14:29:20;22.77;;;11.45;;
81807;SDS011;71241;13.676;100.700;2023-11-19T14:31:50;16.38;;;10.60;;
81807;SDS011;71241;13.676;100.700;2023-11-19T14:34:23;20.65;;;10.38;;
81807;SDS011;71241;13.676;100.700;2023-11-19T14:36:55;16.85;;;10.45;;
81807;SDS011;71241;13.676;100.700;2023-11-19T14:39:26;19.98;;;10.50;;
81807;SDS011;71241;13.676;100.700;2023-11-19T14:42:02;20.48;;;10.05;;
81807;SDS011;71241;13.676;100.700;2023-11-19T14:44:34;19.55;;;10.18;;
81807;SDS011;71241;13.676;100.700;2023-11-19T14:47:05;20.30;;;10.32;;
81807;SDS011;71241;13.676;100.700;2023-11-19T14:49:36;14.80;;;10.95;;
81807;SDS011;71241;13.676;100.700;2023-11-19T14:52:07;18.60;;;13.20;;
81807;SDS011;71241;13.676;100.700;2023-11-19T14:54:40;20.77;;;14.77;;
81807;SDS011;71241;13.676;100.700;2023-11-19T14:57:13;24.67;;;16.52;;
81807;SDS011;71241;13.676;100.700;2023-11-19T14:59:43;21.75;;;17.55;;
81807;SDS011;71241;13.676;100.700;2023-11-19T15:02:15;23.65;;;17.50;;
81807;SDS011;71241;13.676;100.700;2023-11-19T15:04:45;25.75;;;17.48;;
81807;SDS011;71241;13.676;100.700;2023-11-19T15:07:16;24.83;;;17.58;;
81807;SDS011;71241;13.676;100.700;2023-11-19T15:09:48;22.45;;;17.45;;